Time;durP1;ratioP1;P1;durP2;ratioP2;P2;SDS_P1;SDS_P2;PMS_P1;PMS_P2;Temp;Humidity;BMP_temperature;BMP_pressure;BME280_temperature;BME280_humidity;BME280_pressure;Samples;Min_cycle;Max_cycle;Signal;HPM_P1;HPM_P2
2022/06/23 00:02:06;;;;;;;17.80;8.98;;;;;;;11.27;100.00;96937.99;1322878;107;21186;-85
2022/06/23 00:04:40;;;;;;;14.95;8.30;;;;;;;11.33;100.00;96935.11;1336425;106;21173;-83
2022/06/23 00:07:29;;;;;;;16.62;8.35;;;;;;;11.36;100.00;96925.66;1344230;103;21203;-85
2022/06/23 00:10:20;;;;;;;14.73;8.03;;;;;;;11.39;100.00;96916.50;1385499;103;21147;-83
2022/06/23 00:12:47;;;;;;;12.73;7.00;;;;;;;11.41;100.00;96914.90;1360444;106;21124;-83
2022/06/23 00:15:22;;;;;;;12.47;6.78;;;;;;;11.42;100.00;96884.59;1360681;106;21153;-85
2022/06/23 00:18:00;;;;;;;13.65;7.30;;;;;;;11.41;100.00;96872.97;1365106;101;21673;-84
2022/06/23 00:20:45;;;;;;;14.78;7.17;;;;;;;11.40;100.00;96864.56;1441375;100;21105;-84
2022/06/23 00:23:20;;;;;;;12.40;7.10;;;;;;;11.40;100.00;96864.56;1431309;100;21177;-84
2022/06/23 00:26:00;;;;;;;11.95;6.37;;;;;;;11.37;100.00;96851.02;1412866;100;21597;-84
2022/06/23 00:28:38;;;;;;;14.20;6.80;;;;;;;11.35;100.00;96836.09;1392393;102;21139;-85
2022/06/23 00:31:06;;;;;;;11.18;6.05;;;;;;;11.34;100.00;96833.94;1388730;103;21176;-86
2022/06/23 00:33:41;;;;;;;9.73;6.10;;;;;;;11.32;100.00;96818.50;1418685;99;21704;-85
2022/06/23 00:36:32;;;;;;;11.88;6.50;;;;;;;11.32;100.00;96814.45;1433087;100;21136;-85
2022/06/23 00:38:59;;;;;;;12.30;6.75;;;;;;;11.34;100.00;96810.14;1432813;100;21082;-84
2022/06/23 00:41:36;;;;;;;13.53;6.67;;;;;;;11.34;100.00;96804.19;1432780;100;21109;-85
2022/06/23 00:44:07;;;;;;;12.00;6.12;;;;;;;11.35;100.00;96801.77;1435885;100;21183;-85
2022/06/23 00:46:51;;;;;;;12.58;6.17;;;;;;;11.35;100.00;96795.52;1432856;100;21197;-84
2022/06/23 00:49:56;;;;;;;12.00;6.33;;;;;;;11.36;100.00;96797.17;1436041;99;21575;-84
2022/06/23 00:52:28;;;;;;;11.15;5.95;;;;;;;11.37;100.00;96791.51;1467976;98;21113;-84
2022/06/23 00:54:57;;;;;;;12.90;6.33;;;;;;;11.35;100.00;96786.05;1423270;99;21165;-84
2022/06/23 00:57:40;;;;;;;10.40;6.25;;;;;;;11.35;100.00;96786.05;1468229;98;21124;-85
2022/06/23 01:00:17;;;;;;;9.55;5.47;;;;;;;11.36;100.00;96777.69;1445247;99;21099;-84
2022/06/23 01:02:58;;;;;;;11.03;5.83;;;;;;;11.37;100.00;96771.22;1491263;96;21440;-86
2022/06/23 01:05:55;;;;;;;11.73;6.50;;;;;;;11.40;100.00;96765.82;1423478;100;21276;-86
2022/06/23 01:08:35;;;;;;;12.63;6.00;;;;;;;11.40;100.00;96765.30;1423528;101;21173;-87
2022/06/23 01:11:32;;;;;;;11.95;6.37;;;;;;;11.42;100.00;96762.86;1407179;100;21594;-86
2022/06/23 01:14:11;;;;;;;10.00;6.50;;;;;;;11.46;100.00;96755.89;1473126;97;21115;-86
2022/06/23 01:16:46;;;;;;;10.93;6.80;;;;;;;11.51;100.00;96747.79;1477423;96;21168;-86
2022/06/23 01:19:38;;;;;;;9.93;6.53;;;;;;;11.54;100.00;96742.70;1442138;96;21660;-87
2022/06/23 01:22:10;;;;;;;11.15;6.45;;;;;;;11.57;100.00;96729.19;1503768;94;21140;-86
2022/06/23 01:24:51;;;;;;;13.65;7.22;;;;;;;11.59;100.00;96719.72;1501896;96;21101;-86
2022/06/23 01:27:45;;;;;;;12.35;7.37;;;;;;;11.59;100.00;96717.02;1490345;96;21118;-86
2022/06/23 01:30:12;;;;;;;12.18;7.05;;;;;;;11.60;100.00;96728.67;1493739;96;21107;-86
2022/06/23 01:32:47;;;;;;;11.53;7.10;;;;;;;11.61;100.00;96733.00;1495374;96;21102;-87
2022/06/23 01:35:20;;;;;;;9.68;6.70;;;;;;;11.64;100.00;96731.68;1493707;96;21205;-87
2022/06/23 01:37:52;;;;;;;9.65;6.80;;;;;;;11.69;100.00;96737.14;1496075;96;21715;-86
2022/06/23 01:40:26;;;;;;;9.80;6.65;;;;;;;11.71;100.00;96741.75;1495883;95;21237;-87
2022/06/23 01:43:04;;;;;;;;;;;;;;;11.73;100.00;96743.11;1498324;95;21110;-87
2022/06/23 01:45:43;;;;;;;8.90;5.78;;;;;;;11.77;100.00;96739.34;1443258;98;20133;-86
2022/06/23 01:51:42;;;;;;;7.37;5.92;;;;;;;11.87;100.00;96747.55;1422260;101;21097;-86
2022/06/23 01:54:23;;;;;;;7.67;5.33;;;;;;;11.93;100.00;96745.20;1422410;100;21130;-86
2022/06/23 01:57:07;;;;;;;8.15;5.28;;;;;;;12.01;100.00;96743.08;1417716;101;21093;-86
2022/06/23 02:00:17;;;;;;;6.78;5.25;;;;;;;12.07;100.00;96744.73;1423381;101;21129;-87
2022/06/23 02:03:21;;;;;;;7.22;5.33;;;;;;;12.12;100.00;96738.80;1443430;99;21167;-86
2022/06/23 02:06:01;;;;;;;7.92;5.20;;;;;;;12.17;100.00;96731.25;1448801;99;21123;-87
2022/06/23 02:08:48;;;;;;;6.75;5.47;;;;;;;12.23;100.00;96726.67;1448572;99;21260;-88
2022/06/23 02:11:51;;;;;;;8.28;5.65;;;;;;;12.27;100.00;96727.25;1448490;99;21115;-88
2022/06/23 02:14:55;;;;;;;7.85;5.25;;;;;;;12.32;100.00;96724.58;1407438;101;21139;-87
2022/06/23 02:17:50;;;;;;;8.40;5.30;;;;;;;12.37;100.00;96720.25;1407618;102;21205;-86
2022/06/23 02:20:34;;;;;;;6.97;5.80;;;;;;;12.41;100.00;96712.70;1407253;101;21145;-87
2022/06/23 02:23:18;;;;;;;7.40;5.78;;;;;;;12.46;100.00;96709.98;1413473;101;21174;-87
2022/06/23 02:26:00;;;;;;;7.08;5.47;;;;;;;12.48;100.00;96707.85;1368498;105;21220;-86
2022/06/23 02:28:38;;;;;;;7.10;5.85;;;;;;;12.49;100.00;96713.53;1425977;99;21140;-87
2022/06/23 02:31:21;;;;;;;9.75;5.72;;;;;;;12.54;100.00;96714.91;1396834;103;21176;-86
2022/06/23 02:34:05;;;;;;;9.68;6.08;;;;;;;12.59;100.00;96712.77;1397102;103;21168;-86
2022/06/23 02:36:59;;;;;;;8.93;5.80;;;;;;;12.66;100.00;96716.56;1374997;104;21176;-86
2022/06/23 02:39:49;;;;;;;10.08;6.03;;;;;;;12.72;100.00;96716.32;1375435;104;21154;-86
2022/06/23 02:42:30;;;;;;;7.45;6.10;;;;;;;12.78;100.00;96717.70;1384397;102;21131;-86
2022/06/23 02:45:29;;;;;;;7.72;5.80;;;;;;;12.79;100.00;96715.27;1329913;105;21392;-87
2022/06/23 02:48:17;;;;;;;6.80;5.87;;;;;;;12.79;100.00;96721.50;1387755;103;21198;-87
2022/06/23 02:51:11;;;;;;;10.15;6.45;;;;;;;12.83;100.00;96725.30;1414711;101;21105;-87
2022/06/23 02:54:07;;;;;;;10.38;6.67;;;;;;;12.87;100.00;96731.00;1426655;99;21145;-87
2022/06/23 02:56:45;;;;;;;12.03;7.85;;;;;;;12.89;100.00;96737.80;1426686;101;21177;-87
2022/06/23 02:59:17;;;;;;;13.78;8.85;;;;;;;12.91;100.00;96730.77;1426738;101;21125;-86
2022/06/23 03:02:05;;;;;;;20.12;12.88;;;;;;;12.94;100.00;96735.62;1426869;101;21552;-86
2022/06/23 03:04:46;;;;;;;17.87;12.20;;;;;;;13.00;100.00;96734.58;1427497;101;21101;-86
2022/06/23 03:07:38;;;;;;;18.70;12.60;;;;;;;13.04;100.00;96739.73;1427529;98;21142;-87
2022/06/23 03:10:16;;;;;;;22.77;16.50;;;;;;;13.07;100.00;96743.83;1427018;101;21132;-85
2022/06/23 03:12:52;;;;;;;26.80;19.45;;;;;;;13.09;100.00;96748.44;1423308;101;21128;-86
2022/06/23 03:15:32;;;;;;;25.12;18.20;;;;;;;13.09;100.00;96751.95;1424827;101;21087;-87
2022/06/23 03:18:08;;;;;;;22.13;16.00;;;;;;;13.12;100.00;96753.33;1422601;101;21222;-85
2022/06/23 03:20:58;;;;;;;22.60;14.28;;;;;;;13.17;100.00;96759.29;1412551;100;21212;-86
2022/06/23 03:23:34;;;;;;;25.70;17.30;;;;;;;13.21;100.00;96765.80;1416271;101;21122;-86
2022/06/23 03:26:19;;;;;;;25.70;17.48;;;;;;;13.24;100.00;96772.05;1412490;101;21183;-86
2022/06/23 03:29:03;;;;;;;28.20;19.37;;;;;;;13.27;100.00;96786.45;1395516;103;21145;-85
2022/06/23 03:31:40;;;;;;;29.52;20.97;;;;;;;13.29;100.00;96792.42;1395618;103;21153;-86
2022/06/23 03:34:27;;;;;;;24.35;16.00;;;;;;;13.30;100.00;96804.92;1430218;100;21220;-88
2022/06/23 03:37:02;;;;;;;22.10;15.83;;;;;;;13.31;100.00;96806.56;1459953;98;21161;-87
2022/06/23 03:42:44;;;;;;;20.55;14.75;;;;;;;13.28;100.00;96822.01;1508379;94;21141;-86
2022/06/23 03:45:22;;;;;;;22.37;14.75;;;;;;;13.26;100.00;96839.91;1485295;97;21175;-86
2022/06/23 03:47:55;;;;;;;16.62;11.40;;;;;;;13.25;100.00;96843.69;1482669;97;21713;-86
2022/06/23 03:50:41;;;;;;;18.62;11.22;;;;;;;13.26;100.00;96854.83;1485570;97;21084;-86
2022/06/23 03:53:18;;;;;;;14.93;10.15;;;;;;;13.25;100.00;96865.39;1485422;97;21222;-86
2022/06/23 03:55:56;;;;;;;13.08;8.53;;;;;;;13.25;100.00;96874.08;1485485;97;21092;-86
2022/06/23 03:58:36;;;;;;;11.68;7.80;;;;;;;13.24;100.00;96880.06;1485404;95;21103;-86
2022/06/23 04:01:08;;;;;;;13.25;9.33;;;;;;;13.23;100.00;96886.55;1481387;97;21096;-86
2022/06/23 04:03:47;;;;;;;13.48;9.10;;;;;;;13.23;100.00;96893.89;1509076;94;21202;-84
2022/06/23 04:06:25;;;;;;;14.10;8.93;;;;;;;13.20;100.00;96902.55;1530414;94;21108;-87
2022/06/23 04:09:08;;;;;;;14.85;9.90;;;;;;;13.18;100.00;96904.16;1527412;94;21109;-85
2022/06/23 04:11:51;;;;;;;;;;;;;;;13.19;100.00;96913.11;1610499;88;21050;-85
2022/06/23 04:14:30;;;;;;;16.85;11.90;;;;;;;13.18;100.00;96912.30;1593384;90;20104;-84
2022/06/23 04:17:21;;;;;;;24.27;14.85;;;;;;;13.22;100.00;96908.52;1578336;91;21046;-85
2022/06/23 04:19:53;;;;;;;21.52;14.63;;;;;;;13.25;100.00;96911.52;1578231;91;21086;-85
2022/06/23 04:22:28;;;;;;;25.02;18.05;;;;;;;13.32;100.00;96912.67;1538214;93;21130;-86
2022/06/23 04:24:59;;;;;;;23.75;17.12;;;;;;;13.40;100.00;96914.88;1537771;93;21130;-87
2022/06/23 04:27:31;;;;;;;21.25;16.23;;;;;;;13.44;100.00;96912.45;1538145;93;21006;-84
2022/06/23 04:30:01;;;;;;;19.73;14.55;;;;;;;13.47;100.00;96915.97;1494901;96;21111;-85
2022/06/23 04:32:35;;;;;;;18.90;13.43;;;;;;;13.50;100.00;96920.88;1519019;95;21194;-85
2022/06/23 04:35:09;;;;;;;19.82;13.62;;;;;;;13.53;100.00;96923.59;1497234;96;21614;-85
2022/06/23 04:38:00;;;;;;;18.37;13.32;;;;;;;13.59;100.00;96931.48;1511402;95;21164;-85
2022/06/23 04:40:32;;;;;;;23.92;14.78;;;;;;;13.75;100.00;96936.42;1481750;97;21191;-85
2022/06/23 04:43:38;;;;;;;21.90;14.63;;;;;;;13.75;100.00;96936.42;1518409;94;21101;-86
2022/06/23 04:46:22;;;;;;;22.85;16.20;;;;;;;13.89;100.00;96953.03;1483239;97;21128;-84
2022/06/23 04:48:58;;;;;;;23.52;16.90;;;;;;;13.89;100.00;96953.03;1483452;97;21139;-84
2022/06/23 04:51:38;;;;;;;25.30;17.00;;;;;;;13.96;100.00;96965.00;1482924;97;21266;-84
2022/06/23 04:54:13;;;;;;;22.62;15.85;;;;;;;13.99;100.00;96976.15;1482741;97;21161;-85
2022/06/23 04:56:47;;;;;;;21.37;16.15;;;;;;;14.02;100.00;96989.20;1506140;95;21155;-84
2022/06/23 04:59:38;;;;;;;18.32;13.50;;;;;;;14.08;100.00;97002.77;1482834;97;21695;-85
2022/06/23 05:02:32;;;;;;;14.40;9.60;;;;;;;14.13;100.00;97010.94;1482743;97;21133;-84
2022/06/23 05:05:18;;;;;;;9.03;7.17;;;;;;;14.20;100.00;97018.30;1522016;94;21052;-84
2022/06/23 05:08:03;;;;;;;8.98;6.12;;;;;;;14.32;100.00;97030.28;1482849;97;21161;-82
2022/06/23 05:10:37;;;;;;;8.25;5.90;;;;;;;14.36;100.00;97052.59;1482819;97;21176;-75
2022/06/23 05:13:21;;;;;;;10.53;6.65;;;;;;;14.41;100.00;97077.59;1469805;97;21118;-76
2022/06/23 05:16:07;;;;;;;22.70;17.15;;;;;;;14.43;100.00;97103.44;1482751;95;21039;-74
2022/06/23 05:18:45;;;;;;;31.00;25.77;;;;;;;14.39;100.00;97138.21;1483924;95;21080;-76
2022/06/23 05:21:31;;;;;;;90.87;68.17;;;;;;;14.38;100.00;97151.55;1502495;94;21067;-74
2022/06/23 05:24:07;;;;;;;136.75;92.95;;;;;;;14.33;100.00;97183.59;1505555;95;21105;-72
2022/06/23 05:26:59;;;;;;;21.05;12.60;;;;;;;14.29;100.00;97204.75;1508383;90;21094;-77
2022/06/23 05:29:43;;;;;;;13.95;9.33;;;;;;;14.36;100.00;97226.55;1622844;87;21084;-76
2022/06/23 05:32:37;;;;;;;13.28;8.33;;;;;;;14.48;100.00;97244.53;1648830;86;21315;-72
2022/06/23 05:35:24;;;;;;;177.95;146.95;;;;;;;14.61;100.00;97256.34;1656225;86;21152;-74
2022/06/23 05:37:57;;;;;;;328.83;295.93;;;;;;;14.77;100.00;97258.58;1654437;86;21081;-79
2022/06/23 05:40:44;;;;;;;25.82;20.90;;;;;;;14.96;100.00;97271.14;1620866;87;21111;-78
2022/06/23 05:43:14;;;;;;;18.65;11.60;;;;;;;15.09;100.00;97280.72;1618325;89;21123;-84
2022/06/23 05:45:45;;;;;;;13.78;7.83;;;;;;;15.26;100.00;97296.81;1626491;86;21088;-76
2022/06/23 05:48:41;;;;;;;18.82;9.15;;;;;;;15.55;100.00;97297.16;1564521;90;21047;-79
2022/06/23 05:51:15;;;;;;;23.92;16.57;;;;;;;15.97;100.00;97293.41;1564097;92;21091;-77
2022/06/23 05:54:07;;;;;;;30.00;20.45;;;;;;;16.37;100.00;97319.53;1543192;92;21057;-78
2022/06/23 05:56:49;;;;;;;28.60;14.87;;;;;;;16.73;100.00;97347.53;1561066;92;21090;-76
2022/06/23 05:59:26;;;;;;;24.77;12.53;;;;;;;16.98;100.00;97401.28;1558203;92;21029;-78
2022/06/23 06:02:07;;;;;;;26.93;13.62;;;;;;;17.06;100.00;97481.78;1560958;92;21012;-78
2022/06/23 06:04:39;;;;;;;15.75;7.67;;;;;;;17.24;100.00;97531.70;1563091;92;21597;-78
2022/06/23 06:07:06;;;;;;;12.65;8.15;;;;;;;17.54;100.00;97570.98;1562356;92;21067;-83
2022/06/23 06:09:36;;;;;;;9.63;5.78;;;;;;;17.53;100.00;97660.89;1563407;92;21080;-81
2022/06/23 06:12:14;;;;;;;7.03;4.95;;;;;;;17.52;100.00;97695.31;1583328;90;21068;-84
2022/06/23 06:14:50;;;;;;;7.20;4.78;;;;;;;17.53;100.00;97728.35;1591394;90;21248;-82
2022/06/23 06:17:21;;;;;;;25.75;13.30;;;;;;;17.60;100.00;97743.93;1538373;93;21662;-83
2022/06/23 06:19:50;;;;;;;18.73;9.45;;;;;;;17.67;100.00;97773.72;1548594;89;22050;-83
2022/06/23 06:22:53;;;;;;;13.03;7.62;;;;;;;17.80;100.00;97784.94;1551820;91;21069;-79
2022/06/23 06:25:27;;;;;;;10.63;6.25;;;;;;;18.10;100.00;97791.52;1569922;91;21027;-83
2022/06/23 06:28:01;;;;;;;7.55;5.67;;;;;;;18.55;100.00;97811.67;1474779;97;21229;-81
2022/06/23 06:30:31;;;;;;;24.82;13.40;;;;;;;18.63;100.00;97855.99;1475994;96;21086;-83
2022/06/23 06:33:00;;;;;;;23.70;11.63;;;;;;;18.46;100.00;97896.80;1476821;97;21083;-83
2022/06/23 06:35:38;;;;;;;12.37;7.60;;;;;;;18.34;100.00;97912.15;1476688;97;21096;-81
2022/06/23 06:38:09;;;;;;;18.92;9.68;;;;;;;18.41;100.00;97909.11;1474838;97;21139;-78
2022/06/23 06:40:40;;;;;;;15.28;8.73;;;;;;;18.71;100.00;97903.34;1476767;97;21174;-78
2022/06/23 06:43:15;;;;;;;11.50;6.70;;;;;;;19.15;100.00;97891.77;1478419;97;21118;-78
2022/06/23 06:45:43;;;;;;;11.73;6.90;;;;;;;19.38;100.00;97934.70;1490453;93;21173;-81
2022/06/23 06:48:17;;;;;;;12.20;6.80;;;;;;;19.52;100.00;97960.40;1493063;96;21097;-78
2022/06/23 06:50:47;;;;;;;10.40;6.72;;;;;;;19.64;100.00;97975.16;1458850;98;21124;-79
2022/06/23 06:53:36;;;;;;;12.13;6.45;;;;;;;19.78;100.00;97996.79;1458682;98;21251;-79
2022/06/23 06:56:24;;;;;;;13.40;7.50;;;;;;;20.16;100.00;97974.37;1458186;98;21637;-79
2022/06/23 06:59:05;;;;;;;13.75;8.18;;;;;;;20.49;100.00;98035.34;1437137;100;21220;-81
2022/06/23 07:01:36;;;;;;;14.23;7.08;;;;;;;20.76;100.00;98054.67;1419529;101;21154;-81
2022/06/23 07:04:03;;;;;;;22.93;12.53;;;;;;;21.02;100.00;98092.95;1421108;101;21121;-78
2022/06/23 07:06:40;;;;;;;60.12;33.98;;;;;;;21.31;100.00;98086.09;1482527;97;21053;-81
2022/06/23 07:09:45;;;;;;;19.90;12.05;;;;;;;21.43;100.00;98109.08;1482360;97;21128;-80
2022/06/23 07:12:23;;;;;;;13.88;7.83;;;;;;;21.31;100.00;98132.00;1497381;93;21156;-77
2022/06/23 07:14:56;;;;;;;14.00;8.90;;;;;;;21.36;100.00;98124.53;1520782;94;21141;-81
2022/06/23 07:17:55;;;;;;;29.35;24.15;;;;;;;21.56;100.00;98157.10;1523964;94;21084;-81
2022/06/23 07:20:29;;;;;;;16.37;8.30;;;;;;;21.72;100.00;98166.84;1523049;94;21057;-78
2022/06/23 07:23:00;;;;;;;6.10;3.90;;;;;;;22.04;100.00;98192.93;1523437;94;21101;-76
2022/06/23 07:25:33;;;;;;;10.90;7.65;;;;;;;22.09;100.00;98274.06;1531246;94;21093;-73
2022/06/23 07:28:16;;;;;;;17.30;10.00;;;;;;;21.95;100.00;98306.94;1523181;94;21080;-78
2022/06/23 07:30:44;;;;;;;;;;;;;;;22.09;100.00;98322.80;1524064;94;21096;-76
2022/06/23 07:33:44;;;;;;;21.80;11.90;;;;;;;22.28;100.00;98354.59;1528133;94;21152;-79
2022/06/23 07:36:29;;;;;;;8.00;5.28;;;;;;;22.36;100.00;98406.27;1529008;94;21068;-76
2022/06/23 07:39:00;;;;;;;6.22;4.28;;;;;;;22.17;100.00;98588.63;1541899;92;21075;-75
2022/06/23 07:41:36;;;;;;;21.48;15.43;;;;;;;22.10;100.00;98617.02;1501885;96;21085;-79
2022/06/23 07:44:21;;;;;;;6.20;5.42;;;;;;;22.34;100.00;98628.20;1545118;93;21586;-74
2022/06/23 07:46:48;;;;;;;9.80;4.10;;;;;;;22.66;100.00;98633.81;1551166;91;21087;-77
2022/06/23 07:49:15;;;;;;;9.83;5.42;;;;;;;23.01;100.00;98663.62;1557867;91;21608;-77
2022/06/23 07:51:42;;;;;;;28.38;22.30;;;;;;;23.11;100.00;98673.23;1577707;91;21059;-77
2022/06/23 07:54:18;;;;;;;56.28;46.23;;;;;;;23.13;100.00;98679.28;1581513;85;21082;-76
2022/06/23 07:56:44;;;;;;;17.85;11.25;;;;;;;23.31;100.00;98689.36;1688297;85;21015;-76
2022/06/23 07:59:14;;;;;;;12.03;5.90;;;;;;;23.45;100.00;98700.56;1660956;86;21056;-81
2022/06/23 08:01:49;;;;;;;9.03;5.35;;;;;;;23.49;100.00;98707.13;1628121;88;21001;-76
2022/06/23 08:04:33;;;;;;;7.95;5.10;;;;;;;23.62;100.00;98700.97;1657732;86;21020;-79
2022/06/23 08:07:04;;;;;;;9.53;5.00;;;;;;;24.02;100.00;98710.54;1660763;86;21012;-73
2022/06/23 08:09:41;;;;;;;7.92;3.98;;;;;;;24.56;100.00;98715.46;1657368;85;21035;-79
2022/06/23 08:17:51;;;;;;;8.75;5.95;;;;;;;25.15;100.00;98722.97;1679790;85;21490;-77
2022/06/23 08:20:20;;;;;;;8.13;4.72;;;;;;;25.25;100.00;98731.14;1679396;85;21004;-79
2022/06/23 08:22:47;;;;;;;7.05;4.37;;;;;;;25.14;100.00;98739.28;1694517;83;21009;-78
2022/06/23 08:25:15;;;;;;;7.17;3.70;;;;;;;24.96;100.00;98745.08;1706473;84;21016;-76
2022/06/23 08:27:44;;;;;;;4.62;3.65;;;;;;;24.66;100.00;98742.16;1706088;83;21005;-77
2022/06/23 08:30:16;;;;;;;5.28;3.72;;;;;;;24.41;100.00;98742.13;1705987;83;21597;-78
2022/06/23 08:32:47;;;;;;;4.33;3.37;;;;;;;24.23;100.00;98751.19;1630387;88;21581;-77
2022/06/23 08:35:40;;;;;;;7.00;4.40;;;;;;;24.14;100.00;98752.95;1609384;88;21071;-80
2022/06/23 08:38:18;;;;;;;8.13;4.40;;;;;;;24.08;100.00;98763.20;1599357;89;21574;-76
2022/06/23 08:41:11;;;;;;;8.35;4.58;;;;;;;23.98;100.00;98766.08;1597707;90;21159;-76
2022/06/23 08:43:44;;;;;;;;;;;;;;;24.06;100.00;98764.05;1574704;91;21116;-79
2022/06/23 08:46:36;;;;;;;7.22;3.75;;;;;;;24.08;100.00;98765.95;1598809;90;20239;-77
2022/06/23 08:49:30;;;;;;;10.60;4.40;;;;;;;23.93;100.00;98773.84;1583332;90;21061;-75
2022/06/23 08:52:12;;;;;;;4.95;3.40;;;;;;;23.79;100.00;98774.22;1591564;87;21149;-74
2022/06/23 08:54:50;;;;;;;3.00;2.70;;;;;;;23.63;100.00;98776.28;1565613;92;21589;-75
2022/06/23 08:57:37;;;;;;;4.80;2.67;;;;;;;23.30;100.00;98779.55;1591798;90;21033;-75
2022/06/23 09:00:16;;;;;;;3.17;2.33;;;;;;;23.26;100.00;98774.87;1591658;89;21032;-74
2022/06/23 09:03:09;;;;;;;3.15;1.85;;;;;;;23.41;100.00;98789.11;1552763;92;21094;-77
2022/06/23 09:06:00;;;;;;;1.62;1.52;;;;;;;23.58;100.00;98781.27;1542574;93;21653;-79
2022/06/23 09:08:57;;;;;;;5.85;1.98;;;;;;;23.93;100.00;98781.31;1542509;92;21151;-76
2022/06/23 09:11:38;;;;;;;2.87;2.17;;;;;;;24.48;100.00;98784.61;1517303;94;21098;-75
2022/06/23 09:14:34;;;;;;;3.62;2.12;;;;;;;24.87;100.00;98786.38;1493042;96;21205;-75
2022/06/23 09:17:40;;;;;;;2.42;1.60;;;;;;;25.09;100.00;98795.52;1453864;98;21586;-76
2022/06/23 09:20:19;;;;;;;3.35;1.87;;;;;;;25.06;95.40;98800.24;1466527;98;21105;-75
2022/06/23 09:22:57;;;;;;;5.00;2.08;;;;;;;24.96;100.00;98806.72;1465343;98;21068;-76
2022/06/23 09:25:46;;;;;;;3.87;2.00;;;;;;;25.06;100.00;98807.16;1462796;98;21139;-78
2022/06/23 09:28:44;;;;;;;3.02;1.85;;;;;;;24.86;92.39;98808.25;1466089;98;21321;-75
2022/06/23 09:31:43;;;;;;;3.45;1.70;;;;;;;24.29;96.33;98805.23;1474077;97;21128;-78
2022/06/23 09:34:35;;;;;;;1.50;1.40;;;;;;;23.96;97.92;98802.25;1471078;97;21683;-75
2022/06/23 09:37:26;;;;;;;4.03;2.75;;;;;;;23.98;100.00;98795.88;1471771;97;21080;-76
2022/06/23 09:40:33;;;;;;;2.37;2.17;;;;;;;24.11;98.24;98795.75;1473703;97;21195;-77
2022/06/23 09:43:20;;;;;;;2.10;1.70;;;;;;;24.20;100.00;98784.34;1499506;94;21178;-76
2022/06/23 09:46:22;;;;;;;1.72;1.60;;;;;;;24.72;100.00;98780.50;1505220;95;21120;-74
2022/06/23 09:49:17;;;;;;;2.02;1.57;;;;;;;25.33;100.00;98778.05;1509069;94;21090;-76
2022/06/23 09:52:02;;;;;;;7.53;4.62;;;;;;;25.37;82.05;98799.30;1513039;95;21120;-75
2022/06/23 09:54:58;;;;;;;23.50;19.27;;;;;;;24.87;84.08;98799.39;1519551;94;21213;-74
2022/06/23 09:57:48;;;;;;;3.22;2.92;;;;;;;24.57;85.39;98803.59;1519405;94;21098;-75
2022/06/23 10:00:19;;;;;;;3.80;2.25;;;;;;;24.49;88.99;98794.55;1524282;91;21103;-75
2022/06/23 10:03:00;;;;;;;3.42;1.95;;;;;;;24.50;91.22;98809.18;1521980;93;21102;-75
2022/06/23 10:05:53;;;;;;;3.58;2.02;;;;;;;24.62;98.25;98798.02;1546920;93;21087;-77
2022/06/23 10:08:47;;;;;;;16.35;10.68;;;;;;;24.96;90.91;98807.28;1548996;91;21092;-77
2022/06/23 10:11:40;;;;;;;7.28;4.75;;;;;;;24.73;88.48;98810.33;1601116;86;21185;-76
2022/06/23 10:14:27;;;;;;;7.50;3.12;;;;;;;24.47;100.00;98803.70;1657738;86;21031;-77
2022/06/23 10:17:19;;;;;;;3.30;2.50;;;;;;;24.62;100.00;98813.78;1549093;93;21056;-75
2022/06/23 10:20:04;;;;;;;3.85;2.60;;;;;;;24.59;99.63;98817.94;1549048;92;21151;-78
2022/06/23 10:22:59;;;;;;;3.50;2.10;;;;;;;24.61;100.00;98824.02;1573908;91;21082;-78
2022/06/23 10:26:00;;;;;;;5.12;2.70;;;;;;;24.74;100.00;98827.20;1573936;91;21126;-74
2022/06/23 10:28:51;;;;;;;5.17;4.03;;;;;;;24.79;92.37;98825.75;1576336;89;21042;-73
2022/06/23 10:31:52;;;;;;;3.95;2.10;;;;;;;24.83;100.00;98827.62;1575411;90;21060;-76
2022/06/23 10:34:36;;;;;;;8.58;4.62;;;;;;;24.92;92.43;98833.32;1581472;90;21096;-72
2022/06/23 10:37:20;;;;;;;5.08;2.17;;;;;;;24.83;88.32;98834.53;1507930;95;21070;-71
2022/06/23 10:40:22;;;;;;;4.08;2.15;;;;;;;24.54;87.52;98835.13;1508207;95;21078;-74
2022/06/23 10:43:21;;;;;;;5.00;2.60;;;;;;;24.40;91.04;98826.14;1507988;95;21074;-75
2022/06/23 10:45:53;;;;;;;89.47;78.62;;;;;;;24.41;93.87;98821.43;1508748;93;21102;-74
2022/06/23 10:48:44;;;;;;;9.23;5.47;;;;;;;24.54;96.75;98830.98;1508421;95;21062;-75
2022/06/23 10:51:28;;;;;;;6.12;4.15;;;;;;;24.68;97.54;98828.35;1508283;95;21070;-78
2022/06/23 10:54:30;;;;;;;5.62;2.70;;;;;;;24.92;95.45;98825.59;1507518;92;21123;-76
2022/06/23 10:57:15;;;;;;;3.62;2.50;;;;;;;24.87;94.55;98837.52;1510707;94;21142;-77
2022/06/23 10:59:59;;;;;;;2.80;2.30;;;;;;;24.70;95.36;98838.55;1491545;96;21117;-79
2022/06/23 11:02:38;;;;;;;4.97;1.85;;;;;;;24.56;97.78;98837.04;1493755;95;21657;-77
2022/06/23 11:05:56;;;;;;;5.85;3.08;;;;;;;24.59;99.07;98837.28;1494021;95;21672;-76
2022/06/23 11:08:46;;;;;;;3.02;1.92;;;;;;;24.67;99.02;98843.30;1491504;96;21635;-76
2022/06/23 11:11:40;;;;;;;8.90;3.10;;;;;;;24.76;87.19;98845.69;1497913;94;21109;-77
2022/06/23 11:14:32;;;;;;;;;;;;;;;24.69;89.79;98844.65;1568605;91;21061;-74
2022/06/23 11:17:19;;;;;;;6.30;3.45;;;;;;;24.62;94.82;98846.37;1524867;94;20184;-75
2022/06/23 11:20:10;;;;;;;6.97;3.50;;;;;;;24.79;94.39;98835.43;1513344;95;21090;-78
2022/06/23 11:23:05;;;;;;;3.87;2.35;;;;;;;25.06;95.40;98851.41;1535889;93;21550;-76
2022/06/23 11:25:55;;;;;;;5.72;2.33;;;;;;;25.14;88.05;98851.30;1524621;94;21136;-73
2022/06/23 11:28:47;;;;;;;3.00;2.08;;;;;;;25.14;88.51;98851.30;1513369;95;21082;-72
2022/06/23 11:31:31;;;;;;;4.65;2.83;;;;;;;25.27;82.83;98849.23;1535802;93;21542;-73
2022/06/23 11:34:15;;;;;;;14.83;3.85;;;;;;;25.53;83.88;98849.70;1480272;94;21099;-77
2022/06/23 11:37:33;;;;;;;6.17;2.47;;;;;;;26.01;85.81;98837.64;1447344;99;21186;-76
2022/06/23 11:40:08;;;;;;;2.65;2.12;;;;;;;26.58;79.83;98838.00;1445896;99;21138;-77
2022/06/23 11:42:52;;;;;;;5.10;2.30;;;;;;;27.08;73.50;98843.13;1444004;99;21212;-78
2022/06/23 11:46:04;;;;;;;4.78;3.83;;;;;;;27.22;68.74;98846.46;1445823;99;21098;-75
2022/06/23 11:49:16;;;;;;;8.30;4.65;;;;;;;27.11;68.00;98840.31;1470491;97;21076;-76
2022/06/23 11:52:10;;;;;;;6.65;2.80;;;;;;;27.35;70.17;98853.95;1508689;95;21657;-75
2022/06/23 11:54:51;;;;;;;9.20;5.12;;;;;;;27.30;62.77;98847.12;1508894;95;21120;-73
2022/06/23 11:57:46;;;;;;;3.25;2.50;;;;;;;27.03;62.65;98861.26;1509100;95;21144;-73
2022/06/23 12:00:19;;;;;;;4.53;2.65;;;;;;;26.76;65.10;98864.86;1508418;95;21117;-77
2022/06/23 12:03:18;;;;;;;3.98;2.47;;;;;;;26.68;63.97;98854.47;1508397;95;21150;-73
2022/06/23 12:06:10;;;;;;;4.80;2.25;;;;;;;26.41;66.36;98869.91;1508181;95;21149;-76
2022/06/23 12:09:00;;;;;;;4.42;2.62;;;;;;;26.20;67.14;98868.62;1508071;95;21159;-74
2022/06/23 12:11:28;;;;;;;8.98;4.90;;;;;;;26.31;68.27;98867.30;1536510;90;21088;-73
2022/06/23 12:13:58;;;;;;;5.67;2.42;;;;;;;26.06;65.24;98873.53;1650477;85;21000;-74
2022/06/23 12:16:25;;;;;;;13.68;8.30;;;;;;;25.56;68.69;98875.38;1661839;85;21097;-74
2022/06/23 12:19:05;;;;;;;6.17;3.40;;;;;;;25.29;76.10;98882.13;1658953;86;21055;-73
2022/06/23 12:21:57;;;;;;;5.28;2.70;;;;;;;25.37;75.88;98883.68;1659087;85;21036;-72
2022/06/23 12:24:44;;;;;;;13.68;8.95;;;;;;;25.39;77.95;98890.27;1659095;86;21183;-73
2022/06/23 12:27:37;;;;;;;9.53;5.42;;;;;;;25.11;80.02;98891.44;1655966;85;21074;-73
2022/06/23 12:30:07;;;;;;;;;;;;;;;24.78;84.90;98901.49;1661660;86;21014;-73
2022/06/23 12:32:56;;;;;;;3.33;2.90;;;;;;;24.64;92.55;98887.53;1573373;88;20142;-73
2022/06/23 12:35:47;;;;;;;3.60;2.10;;;;;;;24.93;95.96;98890.81;1570512;91;21074;-72
2022/06/23 12:38:28;;;;;;;5.45;2.42;;;;;;;25.06;84.61;98897.03;1533002;94;21637;-74
2022/06/23 12:41:25;;;;;;;5.60;2.98;;;;;;;24.82;82.23;98897.86;1568018;91;21560;-73
2022/06/23 12:44:28;;;;;;;7.85;3.90;;;;;;;24.81;82.34;98897.58;1532979;94;21064;-72
2022/06/23 12:47:02;;;;;;;8.43;5.33;;;;;;;24.98;86.74;98892.98;1532460;91;21080;-73